Terminal Aerodrome Forecast
Issued by NWS State College, PA

Home | Current Version | Previous Version | Text Only | Print | Product List | Glossary On
Versions: 1 2 3 4 5 6 7 8 9 10 11 12 13 14 15 16 17 18 19 20 21 22 23 24 25
000
FTUS41 KCTP 271151
TAFIPT
TAF
KIPT 271151Z 2712/2812 VRB02KT P6SM SCT120
     FM271600 23006KT P6SM BKN050
     FM272000 23006KT P6SM VCTS BKN050CB
     FM280000 00000KT P6SM SCT150
     FM280800 00000KT 4SM BR SCT150=

USA.gov is the U.S. government's official web portal to all federal, state and local government web resources and services.